sensor_id;sensor_type;location;lat;lon;timestamp;temperature;humidity
51661;DHT22;37741;49.748;8.490;2023-04-01T00:01:05;10.90;81.30
51661;DHT22;37741;49.748;8.490;2023-04-01T00:03:31;11.00;81.30
51661;DHT22;37741;49.748;8.490;2023-04-01T00:05:59;10.90;81.30
51661;DHT22;37741;49.748;8.490;2023-04-01T00:08:26;10.90;81.10
51661;DHT22;37741;49.748;8.490;2023-04-01T00:10:52;10.90;81.10
51661;DHT22;37741;49.748;8.490;2023-04-01T00:13:19;10.90;80.80
51661;DHT22;37741;49.748;8.490;2023-04-01T00:15:45;10.90;81.20
51661;DHT22;37741;49.748;8.490;2023-04-01T00:18:12;10.90;81.20
51661;DHT22;37741;49.748;8.490;2023-04-01T00:20:38;10.90;81.30
51661;DHT22;37741;49.748;8.490;2023-04-01T00:23:04;10.90;81.30
51661;DHT22;37741;49.748;8.490;2023-04-01T00:25:30;10.90;81.10
51661;DHT22;37741;49.748;8.490;2023-04-01T00:27:56;10.90;81.40
51661;DHT22;37741;49.748;8.490;2023-04-01T00:30:22;10.90;81.30
51661;DHT22;37741;49.748;8.490;2023-04-01T00:32:51;10.90;81.30
51661;DHT22;37741;49.748;8.490;2023-04-01T00:35:17;10.90;81.20
51661;DHT22;37741;49.748;8.490;2023-04-01T00:37:43;10.90;81.30
51661;DHT22;37741;49.748;8.490;2023-04-01T00:40:35;10.90;81.30
51661;DHT22;37741;49.748;8.490;2023-04-01T00:43:02;10.90;81.30
51661;DHT22;37741;49.748;8.490;2023-04-01T00:45:41;10.80;81.30
51661;DHT22;37741;49.748;8.490;2023-04-01T00:48:11;10.80;81.20
51661;DHT22;37741;49.748;8.490;2023-04-01T00:50:42;10.80;81.10
51661;DHT22;37741;49.748;8.490;2023-04-01T00:53:09;10.80;81.20
51661;DHT22;37741;49.748;8.490;2023-04-01T00:55:39;10.80;81.30
51661;DHT22;37741;49.748;8.490;2023-04-01T00:58:10;10.80;81.30
51661;DHT22;37741;49.748;8.490;2023-04-01T01:00:38;10.80;81.20
51661;DHT22;37741;49.748;8.490;2023-04-01T01:03:04;10.80;81.20
51661;DHT22;37741;49.748;8.490;2023-04-01T01:06:22;10.80;80.90
51661;DHT22;37741;49.748;8.490;2023-04-01T01:08:41;10.80;81.20
51661;DHT22;37741;49.748;8.490;2023-04-01T01:11:11;10.80;81.00
51661;DHT22;37741;49.748;8.490;2023-04-01T01:13:52;10.80;81.20
51661;DHT22;37741;49.748;8.490;2023-04-01T01:16:27;10.80;81.30
51661;DHT22;37741;49.748;8.490;2023-04-01T01:27:01;10.80;81.70
51661;DHT22;37741;49.748;8.490;2023-04-01T01:29:54;10.80;81.00
51661;DHT22;37741;49.748;8.490;2023-04-01T01:35:32;10.80;81.10
51661;DHT22;37741;49.748;8.490;2023-04-01T01:38:10;10.80;81.10
51661;DHT22;37741;49.748;8.490;2023-04-01T01:40:39;10.80;81.10
51661;DHT22;37741;49.748;8.490;2023-04-01T01:43:09;10.80;81.00
51661;DHT22;37741;49.748;8.490;2023-04-01T01:45:40;10.70;80.90
51661;DHT22;37741;49.748;8.490;2023-04-01T01:48:08;10.80;81.00
51661;DHT22;37741;49.748;8.490;2023-04-01T01:50:36;10.70;81.40
51661;DHT22;37741;49.748;8.490;2023-04-01T01:53:05;10.70;80.80
51661;DHT22;37741;49.748;8.490;2023-04-01T01:55:37;10.70;80.80
51661;DHT22;37741;49.748;8.490;2023-04-01T02:00:51;10.70;80.90
51661;DHT22;37741;49.748;8.490;2023-04-01T02:03:20;10.70;80.90
51661;DHT22;37741;49.748;8.490;2023-04-01T02:05:49;10.70;80.90
51661;DHT22;37741;49.748;8.490;2023-04-01T02:08:21;10.70;80.80
51661;DHT22;37741;49.748;8.490;2023-04-01T02:11:01;10.70;80.80
51661;DHT22;37741;49.748;8.490;2023-04-01T02:13:35;10.70;80.90
51661;DHT22;37741;49.748;8.490;2023-04-01T02:16:06;10.70;80.90
51661;DHT22;37741;49.748;8.490;2023-04-01T02:18:36;10.70;80.90
51661;DHT22;37741;49.748;8.490;2023-04-01T02:21:04;10.70;81.00
51661;DHT22;37741;49.748;8.490;2023-04-01T02:23:33;10.70;81.00
51661;DHT22;37741;49.748;8.490;2023-04-01T02:26:00;10.70;81.00
51661;DHT22;37741;49.748;8.490;2023-04-01T02:28:27;10.70;81.00
51661;DHT22;37741;49.748;8.490;2023-04-01T02:30:53;10.60;80.70
51661;DHT22;37741;49.748;8.490;2023-04-01T02:33:20;10.70;81.00
51661;DHT22;37741;49.748;8.490;2023-04-01T02:35:46;10.60;81.00
51661;DHT22;37741;49.748;8.490;2023-04-01T02:38:12;10.60;81.00
51661;DHT22;37741;49.748;8.490;2023-04-01T02:40:42;10.70;81.00
51661;DHT22;37741;49.748;8.490;2023-04-01T02:43:08;10.70;81.00
51661;DHT22;37741;49.748;8.490;2023-04-01T02:45:34;10.60;80.90
51661;DHT22;37741;49.748;8.490;2023-04-01T02:47:59;10.60;80.90
51661;DHT22;37741;49.748;8.490;2023-04-01T02:50:25;10.60;80.90
51661;DHT22;37741;49.748;8.490;2023-04-01T02:52:50;10.60;80.90
51661;DHT22;37741;49.748;8.490;2023-04-01T02:55:16;10.60;81.00
51661;DHT22;37741;49.748;8.490;2023-04-01T02:57:41;10.60;81.00
51661;DHT22;37741;49.748;8.490;2023-04-01T03:00:07;10.60;81.00
51661;DHT22;37741;49.748;8.490;2023-04-01T03:02:37;10.60;81.00
51661;DHT22;37741;49.748;8.490;2023-04-01T03:05:04;10.60;81.00
51661;DHT22;37741;49.748;8.490;2023-04-01T03:07:30;10.60;81.00
51661;DHT22;37741;49.748;8.490;2023-04-01T03:09:56;10.60;80.90
51661;DHT22;37741;49.748;8.490;2023-04-01T03:12:22;10.60;81.00
51661;DHT22;37741;49.748;8.490;2023-04-01T03:14:47;10.60;81.00
51661;DHT22;37741;49.748;8.490;2023-04-01T03:17:13;10.60;81.00
51661;DHT22;37741;49.748;8.490;2023-04-01T03:19:38;10.60;81.00
51661;DHT22;37741;49.748;8.490;2023-04-01T03:22:04;10.60;81.10
51661;DHT22;37741;49.748;8.490;2023-04-01T03:24:30;10.60;81.10
51661;DHT22;37741;49.748;8.490;2023-04-01T03:26:55;10.50;81.10
51661;DHT22;37741;49.748;8.490;2023-04-01T03:29:21;10.60;81.10
51661;DHT22;37741;49.748;8.490;2023-04-01T03:31:47;10.50;81.20
51661;DHT22;37741;49.748;8.490;2023-04-01T03:34:12;10.60;81.20
51661;DHT22;37741;49.748;8.490;2023-04-01T03:36:38;10.50;81.20
51661;DHT22;37741;49.748;8.490;2023-04-01T03:39:04;10.50;81.20
51661;DHT22;37741;49.748;8.490;2023-04-01T03:41:31;10.50;81.20
51661;DHT22;37741;49.748;8.490;2023-04-01T03:43:57;10.60;81.20
51661;DHT22;37741;49.748;8.490;2023-04-01T03:46:23;10.50;81.20
51661;DHT22;37741;49.748;8.490;2023-04-01T03:48:48;10.50;81.20
51661;DHT22;37741;49.748;8.490;2023-04-01T03:51:14;10.50;81.30
51661;DHT22;37741;49.748;8.490;2023-04-01T03:53:40;10.50;81.20
51661;DHT22;37741;49.748;8.490;2023-04-01T03:56:06;10.50;81.30
51661;DHT22;37741;49.748;8.490;2023-04-01T03:58:32;10.50;81.30
51661;DHT22;37741;49.748;8.490;2023-04-01T04:00:58;10.50;81.30
51661;DHT22;37741;49.748;8.490;2023-04-01T04:03:24;10.50;81.30
51661;DHT22;37741;49.748;8.490;2023-04-01T04:05:50;10.50;81.30
51661;DHT22;37741;49.748;8.490;2023-04-01T04:08:16;10.50;81.30
51661;DHT22;37741;49.748;8.490;2023-04-01T04:10:41;10.50;81.30
51661;DHT22;37741;49.748;8.490;2023-04-01T04:13:08;10.50;81.30
51661;DHT22;37741;49.748;8.490;2023-04-01T04:15:33;10.50;81.30
51661;DHT22;37741;49.748;8.490;2023-04-01T04:17:59;10.50;81.30
51661;DHT22;37741;49.748;8.490;2023-04-01T04:20:25;10.50;81.30
51661;DHT22;37741;49.748;8.490;2023-04-01T04:22:50;10.50;81.30
51661;DHT22;37741;49.748;8.490;2023-04-01T04:25:16;10.50;81.30
51661;DHT22;37741;49.748;8.490;2023-04-01T04:27:42;10.50;81.90
51661;DHT22;37741;49.748;8.490;2023-04-01T04:30:08;10.50;81.20
51661;DHT22;37741;49.748;8.490;2023-04-01T04:32:34;10.50;81.10
51661;DHT22;37741;49.748;8.490;2023-04-01T04:35:00;10.50;81.10
51661;DHT22;37741;49.748;8.490;2023-04-01T04:37:26;10.50;81.10
51661;DHT22;37741;49.748;8.490;2023-04-01T04:39:52;10.50;81.10
51661;DHT22;37741;49.748;8.490;2023-04-01T04:42:17;10.50;81.00
51661;DHT22;37741;49.748;8.490;2023-04-01T04:44:43;10.40;81.00
51661;DHT22;37741;49.748;8.490;2023-04-01T04:47:09;10.50;81.10
51661;DHT22;37741;49.748;8.490;2023-04-01T04:49:34;10.50;81.10
51661;DHT22;37741;49.748;8.490;2023-04-01T04:52:00;10.40;81.00
51661;DHT22;37741;49.748;8.490;2023-04-01T04:54:26;10.40;81.00
51661;DHT22;37741;49.748;8.490;2023-04-01T04:56:52;10.40;81.00
51661;DHT22;37741;49.748;8.490;2023-04-01T04:59:18;10.40;81.10
51661;DHT22;37741;49.748;8.490;2023-04-01T05:01:43;10.50;81.10
51661;DHT22;37741;49.748;8.490;2023-04-01T05:04:09;10.50;81.10
51661;DHT22;37741;49.748;8.490;2023-04-01T05:06:35;10.40;81.10
51661;DHT22;37741;49.748;8.490;2023-04-01T05:09:00;10.50;81.10
51661;DHT22;37741;49.748;8.490;2023-04-01T05:11:26;10.50;81.20
51661;DHT22;37741;49.748;8.490;2023-04-01T05:13:52;10.40;81.20
51661;DHT22;37741;49.748;8.490;2023-04-01T05:16:19;10.50;81.30
51661;DHT22;37741;49.748;8.490;2023-04-01T05:18:46;10.40;81.20
51661;DHT22;37741;49.748;8.490;2023-04-01T05:21:13;10.50;81.30
51661;DHT22;37741;49.748;8.490;2023-04-01T05:23:39;10.40;81.30
51661;DHT22;37741;49.748;8.490;2023-04-01T05:26:10;10.50;81.30
51661;DHT22;37741;49.748;8.490;2023-04-01T05:28:36;10.50;81.40
51661;DHT22;37741;49.748;8.490;2023-04-01T05:31:04;10.40;81.30
51661;DHT22;37741;49.748;8.490;2023-04-01T05:33:30;10.40;81.30
51661;DHT22;37741;49.748;8.490;2023-04-01T05:35:56;10.40;81.30
51661;DHT22;37741;49.748;8.490;2023-04-01T05:38:21;10.40;81.30
51661;DHT22;37741;49.748;8.490;2023-04-01T05:40:47;10.40;81.30
51661;DHT22;37741;49.748;8.490;2023-04-01T05:43:13;10.50;81.40
51661;DHT22;37741;49.748;8.490;2023-04-01T05:45:39;10.40;81.30
51661;DHT22;37741;49.748;8.490;2023-04-01T05:48:05;10.40;81.30
51661;DHT22;37741;49.748;8.490;2023-04-01T05:50:30;10.40;81.40
51661;DHT22;37741;49.748;8.490;2023-04-01T05:52:56;10.40;81.50
51661;DHT22;37741;49.748;8.490;2023-04-01T05:55:22;10.40;81.50
51661;DHT22;37741;49.748;8.490;2023-04-01T05:57:48;10.40;81.50
51661;DHT22;37741;49.748;8.490;2023-04-01T06:00:15;10.40;81.50
51661;DHT22;37741;49.748;8.490;2023-04-01T06:02:41;10.40;82.00
51661;DHT22;37741;49.748;8.490;2023-04-01T06:07:37;10.40;81.30
51661;DHT22;37741;49.748;8.490;2023-04-01T06:10:13;10.40;81.40
51661;DHT22;37741;49.748;8.490;2023-04-01T06:12:40;10.40;81.40
51661;DHT22;37741;49.748;8.490;2023-04-01T06:15:25;10.40;81.40
51661;DHT22;37741;49.748;8.490;2023-04-01T06:20:43;10.40;81.40
51661;DHT22;37741;49.748;8.490;2023-04-01T06:26:02;10.40;81.50
51661;DHT22;37741;49.748;8.490;2023-04-01T06:34:17;10.40;81.50
51661;DHT22;37741;49.748;8.490;2023-04-01T06:44:53;10.40;81.50
51661;DHT22;37741;49.748;8.490;2023-04-01T06:50:41;10.40;81.40
51661;DHT22;37741;49.748;8.490;2023-04-01T06:56:08;10.40;81.40
51661;DHT22;37741;49.748;8.490;2023-04-01T06:58:39;10.40;81.40
51661;DHT22;37741;49.748;8.490;2023-04-01T07:01:10;10.50;81.50
51661;DHT22;37741;49.748;8.490;2023-04-01T07:03:43;10.40;81.40
51661;DHT22;37741;49.748;8.490;2023-04-01T07:09:16;10.40;81.40
51661;DHT22;37741;49.748;8.490;2023-04-01T07:11:44;10.50;81.50
51661;DHT22;37741;49.748;8.490;2023-04-01T07:14:24;10.50;81.50
51661;DHT22;37741;49.748;8.490;2023-04-01T07:17:13;10.50;81.60
51661;DHT22;37741;49.748;8.490;2023-04-01T07:19:50;10.50;81.60
51661;DHT22;37741;49.748;8.490;2023-04-01T07:22:32;10.50;81.60
51661;DHT22;37741;49.748;8.490;2023-04-01T07:25:02;10.50;81.70
51661;DHT22;37741;49.748;8.490;2023-04-01T07:27:30;10.50;82.20
51661;DHT22;37741;49.748;8.490;2023-04-01T07:29:57;10.50;82.70
51661;DHT22;37741;49.748;8.490;2023-04-01T07:32:39;10.50;83.50
51661;DHT22;37741;49.748;8.490;2023-04-01T07:35:24;10.50;82.90
51661;DHT22;37741;49.748;8.490;2023-04-01T07:40:58;10.60;82.50
51661;DHT22;37741;49.748;8.490;2023-04-01T07:43:54;10.60;82.30
51661;DHT22;37741;49.748;8.490;2023-04-01T07:51:37;10.70;82.80
51661;DHT22;37741;49.748;8.490;2023-04-01T07:54:10;10.70;82.50
51661;DHT22;37741;49.748;8.490;2023-04-01T07:59:54;10.70;82.40
51661;DHT22;37741;49.748;8.490;2023-04-01T08:05:25;10.70;82.30
51661;DHT22;37741;49.748;8.490;2023-04-01T08:21:35;10.80;82.30
51661;DHT22;37741;49.748;8.490;2023-04-01T08:27:30;10.80;82.40
51661;DHT22;37741;49.748;8.490;2023-04-01T08:32:39;10.80;82.30
51661;DHT22;37741;49.748;8.490;2023-04-01T08:37:36;10.90;82.30
51661;DHT22;37741;49.748;8.490;2023-04-01T08:49:04;10.90;82.30
51661;DHT22;37741;49.748;8.490;2023-04-01T08:57:12;11.00;82.60
51661;DHT22;37741;49.748;8.490;2023-04-01T08:59:56;11.00;82.70
51661;DHT22;37741;49.748;8.490;2023-04-01T09:02:38;11.00;82.50
51661;DHT22;37741;49.748;8.490;2023-04-01T09:05:46;11.00;82.50
51661;DHT22;37741;49.748;8.490;2023-04-01T09:08:35;11.10;83.70
51661;DHT22;37741;49.748;8.490;2023-04-01T09:11:16;11.10;83.30
51661;DHT22;37741;49.748;8.490;2023-04-01T09:14:16;11.10;83.10
51661;DHT22;37741;49.748;8.490;2023-04-01T09:16:51;11.10;82.90
51661;DHT22;37741;49.748;8.490;2023-04-01T09:28:33;11.20;82.90
51661;DHT22;37741;49.748;8.490;2023-04-01T09:34:02;11.20;83.20
51661;DHT22;37741;49.748;8.490;2023-04-01T09:36:38;11.20;82.80
51661;DHT22;37741;49.748;8.490;2023-04-01T09:47:33;11.30;83.30
51661;DHT22;37741;49.748;8.490;2023-04-01T09:50:27;11.30;83.70
51661;DHT22;37741;49.748;8.490;2023-04-01T10:13:05;11.40;84.20
51661;DHT22;37741;49.748;8.490;2023-04-01T10:18:34;11.40;84.10
51661;DHT22;37741;49.748;8.490;2023-04-01T10:23:59;11.40;84.10
51661;DHT22;37741;49.748;8.490;2023-04-01T10:35:14;11.50;84.00
51661;DHT22;37741;49.748;8.490;2023-04-01T10:38:06;11.50;83.80
51661;DHT22;37741;49.748;8.490;2023-04-01T10:43:18;11.50;83.80
51661;DHT22;37741;49.748;8.490;2023-04-01T10:46:28;11.60;84.00
51661;DHT22;37741;49.748;8.490;2023-04-01T10:49:24;11.60;84.40
51661;DHT22;37741;49.748;8.490;2023-04-01T11:08:52;11.70;85.30
51661;DHT22;37741;49.748;8.490;2023-04-01T11:18:01;11.70;85.50
51661;DHT22;37741;49.748;8.490;2023-04-01T11:26:12;11.70;85.70
51661;DHT22;37741;49.748;8.490;2023-04-01T11:29:03;11.80;85.80
51661;DHT22;37741;49.748;8.490;2023-04-01T11:43:37;11.70;85.90
51661;DHT22;37741;49.748;8.490;2023-04-01T11:45:59;11.70;85.80
51661;DHT22;37741;49.748;8.490;2023-04-01T11:48:57;11.70;86.00
51661;DHT22;37741;49.748;8.490;2023-04-01T11:57:35;11.70;86.70
51661;DHT22;37741;49.748;8.490;2023-04-01T12:05:39;11.70;86.20
51661;DHT22;37741;49.748;8.490;2023-04-01T12:19:16;11.80;87.30
51661;DHT22;37741;49.748;8.490;2023-04-01T12:24:59;11.80;87.20
51661;DHT22;37741;49.748;8.490;2023-04-01T12:27:44;11.80;87.10
51661;DHT22;37741;49.748;8.490;2023-04-01T12:39:06;11.80;86.60
51661;DHT22;37741;49.748;8.490;2023-04-01T12:41:44;11.90;86.60
51661;DHT22;37741;49.748;8.490;2023-04-01T12:44:30;11.90;86.50
51661;DHT22;37741;49.748;8.490;2023-04-01T12:47:11;11.90;86.50
51661;DHT22;37741;49.748;8.490;2023-04-01T12:50:16;11.90;86.50
51661;DHT22;37741;49.748;8.490;2023-04-01T12:58:03;11.80;86.10
51661;DHT22;37741;49.748;8.490;2023-04-01T13:06:43;11.80;86.20
51661;DHT22;37741;49.748;8.490;2023-04-01T13:09:53;11.80;86.40
51661;DHT22;37741;49.748;8.490;2023-04-01T13:12:36;11.80;86.40
51661;DHT22;37741;49.748;8.490;2023-04-01T13:18:01;11.80;86.40
51661;DHT22;37741;49.748;8.490;2023-04-01T13:20:49;11.80;86.50
51661;DHT22;37741;49.748;8.490;2023-04-01T13:23:36;11.80;86.80
51661;DHT22;37741;49.748;8.490;2023-04-01T13:26:10;11.80;86.70
51661;DHT22;37741;49.748;8.490;2023-04-01T13:37:08;11.70;86.90
51661;DHT22;37741;49.748;8.490;2023-04-01T13:39:45;11.80;87.00
51661;DHT22;37741;49.748;8.490;2023-04-01T13:42:33;11.80;87.40
51661;DHT22;37741;49.748;8.490;2023-04-01T13:45:23;11.80;87.50
51661;DHT22;37741;49.748;8.490;2023-04-01T13:48:23;11.80;87.50
51661;DHT22;37741;49.748;8.490;2023-04-01T13:51:05;11.80;87.50
51661;DHT22;37741;49.748;8.490;2023-04-01T13:54:07;11.80;87.60
51661;DHT22;37741;49.748;8.490;2023-04-01T14:10:23;11.70;87.30
51661;DHT22;37741;49.748;8.490;2023-04-01T14:13:03;11.70;87.40
51661;DHT22;37741;49.748;8.490;2023-04-01T14:20:57;11.70;87.60
51661;DHT22;37741;49.748;8.490;2023-04-01T14:29:31;11.70;87.80
51661;DHT22;37741;49.748;8.490;2023-04-01T14:35:13;11.70;88.00
51661;DHT22;37741;49.748;8.490;2023-04-01T14:46:14;11.70;87.90
51661;DHT22;37741;49.748;8.490;2023-04-01T14:48:58;11.70;88.00
51661;DHT22;37741;49.748;8.490;2023-04-01T14:51:38;11.70;88.40
51661;DHT22;37741;49.748;8.490;2023-04-01T14:54:13;11.70;87.80
51661;DHT22;37741;49.748;8.490;2023-04-01T14:56:49;11.70;88.00
51661;DHT22;37741;49.748;8.490;2023-04-01T14:59:27;11.70;88.00
51661;DHT22;37741;49.748;8.490;2023-04-01T15:08:05;11.70;88.00
51661;DHT22;37741;49.748;8.490;2023-04-01T15:27:41;11.70;88.20
51661;DHT22;37741;49.748;8.490;2023-04-01T15:30:32;11.70;88.30
51661;DHT22;37741;49.748;8.490;2023-04-01T15:33:06;11.70;88.10
51661;DHT22;37741;49.748;8.490;2023-04-01T15:35:59;11.70;87.70
51661;DHT22;37741;49.748;8.490;2023-04-01T15:38:43;11.70;87.80
51661;DHT22;37741;49.748;8.490;2023-04-01T15:44:37;11.70;87.30
51661;DHT22;37741;49.748;8.490;2023-04-01T15:47:33;11.80;87.20
51661;DHT22;37741;49.748;8.490;2023-04-01T15:50:28;11.80;87.20
51661;DHT22;37741;49.748;8.490;2023-04-01T15:56:26;11.80;86.80
51661;DHT22;37741;49.748;8.490;2023-04-01T15:59:14;11.80;86.20
51661;DHT22;37741;49.748;8.490;2023-04-01T16:04:46;11.80;85.80
51661;DHT22;37741;49.748;8.490;2023-04-01T16:07:26;11.80;85.80
51661;DHT22;37741;49.748;8.490;2023-04-01T16:18:45;11.80;85.20
51661;DHT22;37741;49.748;8.490;2023-04-01T16:21:46;11.80;85.10
51661;DHT22;37741;49.748;8.490;2023-04-01T16:24:45;11.80;85.00
51661;DHT22;37741;49.748;8.490;2023-04-01T16:29:47;11.80;84.80
51661;DHT22;37741;49.748;8.490;2023-04-01T16:43:38;11.80;84.10
51661;DHT22;37741;49.748;8.490;2023-04-01T16:46:43;11.80;84.00
51661;DHT22;37741;49.748;8.490;2023-04-01T16:54:35;11.80;84.50
51661;DHT22;37741;49.748;8.490;2023-04-01T16:57:03;11.80;84.50
51661;DHT22;37741;49.748;8.490;2023-04-01T16:59:40;11.80;84.20
51661;DHT22;37741;49.748;8.490;2023-04-01T17:02:13;11.80;83.90
51661;DHT22;37741;49.748;8.490;2023-04-01T17:04:58;11.80;84.10
51661;DHT22;37741;49.748;8.490;2023-04-01T17:13:11;11.80;83.70
51661;DHT22;37741;49.748;8.490;2023-04-01T17:23:51;11.70;83.50
51661;DHT22;37741;49.748;8.490;2023-04-01T17:26:30;11.80;83.80
51661;DHT22;37741;49.748;8.490;2023-04-01T17:33:58;11.80;83.40
51661;DHT22;37741;49.748;8.490;2023-04-01T17:42:10;11.70;83.20
51661;DHT22;37741;49.748;8.490;2023-04-01T17:47:14;11.70;83.40
51661;DHT22;37741;49.748;8.490;2023-04-01T17:50:00;11.70;83.50
51661;DHT22;37741;49.748;8.490;2023-04-01T17:52:39;11.70;83.40
51661;DHT22;37741;49.748;8.490;2023-04-01T17:58:20;11.70;83.50
51661;DHT22;37741;49.748;8.490;2023-04-01T18:01:14;11.70;84.00
51661;DHT22;37741;49.748;8.490;2023-04-01T18:06:21;11.70;83.50
51661;DHT22;37741;49.748;8.490;2023-04-01T18:08:56;11.70;83.20
51661;DHT22;37741;49.748;8.490;2023-04-01T18:11:34;11.70;83.40
51661;DHT22;37741;49.748;8.490;2023-04-01T18:14:26;11.70;83.40
51661;DHT22;37741;49.748;8.490;2023-04-01T18:17:18;11.70;83.20
51661;DHT22;37741;49.748;8.490;2023-04-01T18:20:01;11.60;83.10
51661;DHT22;37741;49.748;8.490;2023-04-01T18:22:42;11.60;83.20
51661;DHT22;37741;49.748;8.490;2023-04-01T18:25:33;11.60;83.40
51661;DHT22;37741;49.748;8.490;2023-04-01T18:28:45;11.60;83.30
51661;DHT22;37741;49.748;8.490;2023-04-01T18:31:19;11.60;82.80
51661;DHT22;37741;49.748;8.490;2023-04-01T18:34:08;11.60;83.30
51661;DHT22;37741;49.748;8.490;2023-04-01T18:36:56;11.60;82.70
51661;DHT22;37741;49.748;8.490;2023-04-01T18:39:52;11.50;82.90
51661;DHT22;37741;49.748;8.490;2023-04-01T18:42:43;11.50;83.00
51661;DHT22;37741;49.748;8.490;2023-04-01T18:45:40;11.50;83.10
51661;DHT22;37741;49.748;8.490;2023-04-01T18:53:59;11.50;83.10
51661;DHT22;37741;49.748;8.490;2023-04-01T18:56:37;11.50;83.20
51661;DHT22;37741;49.748;8.490;2023-04-01T19:04:38;11.50;82.80
51661;DHT22;37741;49.748;8.490;2023-04-01T19:09:49;11.40;83.50
51661;DHT22;37741;49.748;8.490;2023-04-01T19:15:18;11.40;83.50
51661;DHT22;37741;49.748;8.490;2023-04-01T19:18:11;11.40;83.10
51661;DHT22;37741;49.748;8.490;2023-04-01T19:21:01;11.40;83.10
51661;DHT22;37741;49.748;8.490;2023-04-01T19:32:05;11.40;83.20
51661;DHT22;37741;49.748;8.490;2023-04-01T19:34:43;11.40;83.20
51661;DHT22;37741;49.748;8.490;2023-04-01T19:37:56;11.30;83.60
51661;DHT22;37741;49.748;8.490;2023-04-01T19:46:25;11.30;83.20
51661;DHT22;37741;49.748;8.490;2023-04-01T19:51:57;11.30;83.60
51661;DHT22;37741;49.748;8.490;2023-04-01T19:54:45;11.30;83.00
51661;DHT22;37741;49.748;8.490;2023-04-01T19:57:51;11.30;83.00
51661;DHT22;37741;49.748;8.490;2023-04-01T20:00:40;11.30;83.80
51661;DHT22;37741;49.748;8.490;2023-04-01T20:03:25;11.20;83.20
51661;DHT22;37741;49.748;8.490;2023-04-01T20:06:16;11.20;83.60
51661;DHT22;37741;49.748;8.490;2023-04-01T20:14:40;11.20;83.80
51661;DHT22;37741;49.748;8.490;2023-04-01T20:17:31;11.20;83.80
51661;DHT22;37741;49.748;8.490;2023-04-01T20:25:42;11.10;83.70
51661;DHT22;37741;49.748;8.490;2023-04-01T20:34:31;11.10;83.60
51661;DHT22;37741;49.748;8.490;2023-04-01T20:37:56;11.10;83.80
51661;DHT22;37741;49.748;8.490;2023-04-01T20:40:52;11.10;83.80
51661;DHT22;37741;49.748;8.490;2023-04-01T20:43:32;11.10;83.90
51661;DHT22;37741;49.748;8.490;2023-04-01T20:46:39;11.10;83.90
51661;DHT22;37741;49.748;8.490;2023-04-01T20:49:19;11.10;83.90
51661;DHT22;37741;49.748;8.490;2023-04-01T20:57:25;11.10;84.10
51661;DHT22;37741;49.748;8.490;2023-04-01T21:12:03;11.00;83.90
51661;DHT22;37741;49.748;8.490;2023-04-01T21:28:05;11.00;84.20
51661;DHT22;37741;49.748;8.490;2023-04-01T22:00:38;10.90;84.50
51661;DHT22;37741;49.748;8.490;2023-04-01T22:06:06;10.90;84.50
51661;DHT22;37741;49.748;8.490;2023-04-01T22:11:47;10.90;84.60
51661;DHT22;37741;49.748;8.490;2023-04-01T22:17:02;10.80;84.60
51661;DHT22;37741;49.748;8.490;2023-04-01T22:19:55;10.90;84.60
51661;DHT22;37741;49.748;8.490;2023-04-01T22:22:49;10.80;84.60
51661;DHT22;37741;49.748;8.490;2023-04-01T22:25:23;10.80;84.60
51661;DHT22;37741;49.748;8.490;2023-04-01T22:28:03;10.90;84.70
51661;DHT22;37741;49.748;8.490;2023-04-01T22:30:34;10.90;84.60
51661;DHT22;37741;49.748;8.490;2023-04-01T22:36:37;10.80;84.70
51661;DHT22;37741;49.748;8.490;2023-04-01T22:39:30;10.80;84.70
51661;DHT22;37741;49.748;8.490;2023-04-01T22:50:24;10.80;84.70
51661;DHT22;37741;49.748;8.490;2023-04-01T22:52:58;10.80;84.70
51661;DHT22;37741;49.748;8.490;2023-04-01T22:55:29;10.80;84.70
51661;DHT22;37741;49.748;8.490;2023-04-01T22:58:17;10.80;84.80
51661;DHT22;37741;49.748;8.490;2023-04-01T23:00:52;10.80;84.80
51661;DHT22;37741;49.748;8.490;2023-04-01T23:05:59;10.80;84.90
51661;DHT22;37741;49.748;8.490;2023-04-01T23:11:46;10.70;84.90
51661;DHT22;37741;49.748;8.490;2023-04-01T23:19:49;10.70;84.90
51661;DHT22;37741;49.748;8.490;2023-04-01T23:27:39;10.70;85.00
51661;DHT22;37741;49.748;8.490;2023-04-01T23:33:30;10.70;85.00
51661;DHT22;37741;49.748;8.490;2023-04-01T23:36:02;10.70;85.20
51661;DHT22;37741;49.748;8.490;2023-04-01T23:38:38;10.70;85.00
51661;DHT22;37741;49.748;8.490;2023-04-01T23:41:05;10.60;85.00
51661;DHT22;37741;49.748;8.490;2023-04-01T23:43:35;10.70;85.00
51661;DHT22;37741;49.748;8.490;2023-04-01T23:46:03;10.70;85.00
51661;DHT22;37741;49.748;8.490;2023-04-01T23:48:47;10.60;85.00
51661;DHT22;37741;49.748;8.490;2023-04-01T23:51:18;10.60;85.10
51661;DHT22;37741;49.748;8.490;2023-04-01T23:53:46;10.70;85.20
51661;DHT22;37741;49.748;8.490;2023-04-01T23:56:16;10.70;85.40
51661;DHT22;37741;49.748;8.490;2023-04-01T23:58:51;10.60;85.30
